Detall de PIREP

Printer-friendly versionPDF version

[2017/06/04 15:19:00]
Flight IATA:CT3112
Pilot Number:012
Company ICAO:CAT
Aircraft Type:F50/A
PAX:50
Aircraft Registration:PAOB
Departing Airport: LEBL
Destination Airport: LFMP
Alternate Airport:LEGE
Online: VATSIM
Route:DALIN A67 BGR A27 KANIG
Flight Level:F140
No Slew and time accel
No pause
Crash detect
Detect pilot in Cockpit between each 30 and 45 minutes
15:19 Zero fuel Weight: 38757 Lbs, Fuel Weight: 4909 Lbs
15:19 VATSIM:LEBL 041500Z 21003KT 170V250 7000 SHRA SCT015 SCT023 FEW025TCU 20/19 Q1015 NOSIG
15:19 VATSIM:LFMP 041500Z AUTO 31009KT 9999 SCT060 SCT110 BKN140 23/11 Q1015 TEMPO BKN080TCU
15:25 Parking Brakes off
15:30 Take-off
15:30 Take off Weight: 43562 Lbs
15:30 Wind: 216º @ 003 Knots Heading: 244º
15:30 POS N41º 17´ 12´´ E002º 05´ 16´´
15:30 Flaps:3 at 117 Knots
15:30 Gear Up: 117 Knots
15:32 Flaps:2 at 139 Knots
15:32 Flaps:1 at 139 Knots
15:32 Flaps:0 at 140 Knots
15:40 TOC
15:40 Fuel Weight: 4401 Lb
15:45 Wind:237º@016 Knots Heading: 064º Ground Speed: 272 Knots Altitude 14068 ft
16:00 Wind:235º@020 Knots Heading: 061º Ground Speed: 276 Knots Altitude 14061 ft
16:07 TOD
16:07 Fuel Weight: 3558 Lb
16:15 Wind:317º@001 Knots Heading: 344º Ground Speed: 226 Knots Altitude 5206 ft
16:16 Gear Down: 196 Knots
16:16 Flaps:2 at 190 Knots
16:17 Flaps:3 at 158 Knots
16:17 Flaps:4 at 135 Knots
16:17 Flaps:5 at 130 Knots
16:17 Flaps:6 at 124 Knots
16:19 TouchDown:Rate -184 ft/min Speed: 109 Knots
16:19 Flaps:2 at 15 Knots
16:19 Flaps:0 at 13 Knots
16:19 VATSIM:LFMP 041600Z AUTO 29010KT 9999 BKN056 BKN066 BKN100 21/12 Q1015 TEMPO BKN080TCU
16:19 Land
16:19 Wind:299º@006 Knots
16:19 Heading: 350º
16:19 Flight Duration: 00:49
16:19 Landing Weight: 42132 Lbs
16:19 POS N42º 44´ 31´´ E002º 52´ 18´´
16:21 Parking brakes on
16:21 Block to Block Duration: 00:56
16:21 Final Fuel: 3355 Lbls
16:21 Spent Fuel: 1554 Lbls
16:21 Flight Length: 187 NM
16:21 TOD Land Length: 41 NM

Exportar CSV

Powered by Drupal - Modified by Danger4k